Time,TemperatureF,DewpointF,PressureIn,WindDirection,WindDirectionDegrees,WindSpeedMPH,WindSpeedGustMPH,Humidity,HourlyPrecipIn,Conditions,Clouds,dailyrainin,SoftwareType,DateUTC
2013-05-02 00:00:00,39.2,34.8,29.29,SSW,202,1.1,1.1,84,0.00,,CLR,0.00,VWS V14.01,2013-05-02 07:00:00,
2013-05-02 00:05:00,39.2,34.8,29.29,East,90,0.0,0.0,84,0.00,,CLR,0.00,VWS V14.01,2013-05-02 07:05:00,
2013-05-02 00:10:00,39.0,34.6,29.29,SE,135,0.0,0.0,84,0.00,,CLR,0.00,VWS V14.01,2013-05-02 07:10:00,
2013-05-02 00:15:00,38.8,34.4,29.29,South,180,0.0,0.0,84,0.00,,CLR,0.00,VWS V14.01,2013-05-02 07:15:00,
2013-05-02 00:20:00,38.5,34.1,29.29,South,180,0.0,0.0,84,0.00,,CLR,0.00,VWS V14.01,2013-05-02 07:20:00,
2013-05-02 00:25:00,38.3,34.2,29.29,South,180,0.0,0.0,85,0.00,,CLR,0.00,VWS V14.01,2013-05-02 07:25:00,
2013-05-02 00:30:00,38.1,33.7,29.29,NW,315,0.0,0.0,84,0.00,,CLR,0.00,VWS V14.01,2013-05-02 07:30:00,
2013-05-02 00:35:00,38.1,34.3,29.29,SSW,202,1.1,1.1,86,0.00,,CLR,0.00,VWS V14.01,2013-05-02 07:35:00,
2013-05-02 00:40:00,37.9,33.8,29.29,South,180,0.0,0.0,85,0.00,,CLR,0.00,VWS V14.01,2013-05-02 07:40:00,
2013-05-02 00:45:00,37.8,33.7,29.29,South,180,0.0,0.0,85,0.00,,CLR,0.00,VWS V14.01,2013-05-02 07:45:00,
2013-05-02 00:50:00,37.8,34.0,29.29,SSW,202,0.0,0.0,86,0.00,,CLR,0.00,VWS V14.01,2013-05-02 07:50:00,
2013-05-02 00:55:00,37.8,34.0,29.29,NNW,338,0.0,0.0,86,0.00,,CLR,0.00,VWS V14.01,2013-05-02 07:55:00,
2013-05-02 01:00:00,37.8,34.0,29.29,West,270,0.0,0.0,86,0.00,,CLR,0.00,VWS V14.01,2013-05-02 08:00:00,
2013-05-02 01:05:00,37.8,34.2,29.29,North,0,0.0,0.0,87,0.00,,CLR,0.00,VWS V14.01,2013-05-02 08:05:00,
2013-05-02 01:10:00,37.6,34.1,29.29,South,180,0.0,0.0,87,0.00,,CLR,0.00,VWS V14.01,2013-05-02 08:10:00,
2013-05-02 01:15:00,37.6,34.3,29.29,SW,225,1.6,1.6,88,0.00,,CLR,0.00,VWS V14.01,2013-05-02 08:15:00,
2013-05-02 01:20:00,37.6,34.3,29.29,SW,225,0.0,0.0,88,0.00,,CLR,0.00,VWS V14.01,2013-05-02 08:20:00,
2013-05-02 01:25:00,37.4,33.9,29.29,ESE,112,0.0,0.0,87,0.00,,CLR,0.00,VWS V14.01,2013-05-02 08:25:00,
2013-05-02 01:30:00,37.4,33.9,29.29,North,0,0.0,0.0,87,0.00,,CLR,0.00,VWS V14.01,2013-05-02 08:30:00,
2013-05-02 01:35:00,37.4,33.9,29.29,ESE,112,0.0,0.0,87,0.00,,CLR,0.00,VWS V14.01,2013-05-02 08:35:00,
2013-05-02 01:40:00,37.2,33.7,29.29,ESE,112,0.9,0.9,87,0.00,,CLR,0.00,VWS V14.01,2013-05-02 08:40:00,
2013-05-02 01:45:00,37.4,34.2,29.29,SW,225,0.0,0.0,88,0.00,,CLR,0.00,VWS V14.01,2013-05-02 08:45:00,
2013-05-02 01:50:00,37.4,34.2,29.29,ENE,68,0.0,0.0,88,0.00,,CLR,0.00,VWS V14.01,2013-05-02 08:50:00,
2013-05-02 01:55:00,37.4,34.2,29.29,ENE,68,0.0,0.0,88,0.00,,CLR,0.00,VWS V14.01,2013-05-02 08:55:00,
2013-05-02 02:00:00,37.2,34.3,29.29,WSW,248,2.7,2.7,89,0.00,,CLR,0.00,VWS V14.01,2013-05-02 09:00:00,
2013-05-02 02:05:00,37.2,34.3,29.29,West,270,0.0,0.0,89,0.00,,CLR,0.00,VWS V14.01,2013-05-02 09:05:00,
2013-05-02 02:10:00,37.2,34.3,29.29,West,270,0.0,0.0,89,0.00,,CLR,0.00,VWS V14.01,2013-05-02 09:10:00,
2013-05-02 02:15:00,37.0,34.1,29.29,West,270,0.0,0.0,89,0.00,,CLR,0.00,VWS V14.01,2013-05-02 09:15:00,
2013-05-02 02:20:00,36.9,33.9,29.29,WSW,248,0.0,0.0,89,0.00,,CLR,0.00,VWS V14.01,2013-05-02 09:20:00,
2013-05-02 02:25:00,36.7,33.8,29.29,West,270,1.3,1.3,89,0.00,,CLR,0.00,VWS V14.01,2013-05-02 09:25:00,
2013-05-02 02:30:00,36.9,33.9,29.29,NE,45,0.0,0.0,89,0.00,,CLR,0.00,VWS V14.01,2013-05-02 09:30:00,
2013-05-02 02:35:00,36.7,33.8,29.29,NNE,22,1.3,1.3,89,0.00,,CLR,0.00,VWS V14.01,2013-05-02 09:35:00,
2013-05-02 02:40:00,36.5,33.6,29.29,SE,135,0.0,0.0,89,0.00,,CLR,0.00,VWS V14.01,2013-05-02 09:40:00,
2013-05-02 02:45:00,36.3,33.4,29.29,SSW,202,1.1,1.1,89,0.00,,CLR,0.00,VWS V14.01,2013-05-02 09:45:00,
2013-05-02 02:50:00,36.1,33.2,29.29,WSW,248,0.0,0.0,89,0.00,,CLR,0.00,VWS V14.01,2013-05-02 09:50:00,
2013-05-02 02:55:00,36.0,33.0,29.29,SW,225,0.0,0.0,89,0.00,,CLR,0.00,VWS V14.01,2013-05-02 09:55:00,
2013-05-02 03:00:00,35.6,32.4,29.29,WNW,292,0.0,0.0,88,0.00,,CLR,0.00,VWS V14.01,2013-05-02 10:00:00,
2013-05-02 03:05:00,35.4,32.5,29.29,SE,135,0.0,0.0,89,0.00,,CLR,0.00,VWS V14.01,2013-05-02 10:05:00,
2013-05-02 03:10:00,35.4,32.5,29.29,SSW,202,0.0,0.0,89,0.00,,CLR,0.00,VWS V14.01,2013-05-02 10:10:00,
2013-05-02 03:15:00,35.1,32.2,29.29,West,270,0.0,0.0,89,0.00,,CLR,0.00,VWS V14.01,2013-05-02 10:15:00,
2013-05-02 03:20:00,34.9,31.7,29.29,WSW,248,0.0,0.0,88,0.00,,CLR,0.00,VWS V14.01,2013-05-02 10:20:00,
2013-05-02 03:25:00,34.7,31.8,29.29,NNE,22,0.0,0.0,89,0.00,,CLR,0.00,VWS V14.01,2013-05-02 10:25:00,
2013-05-02 03:30:00,34.5,31.6,29.29,NNE,22,0.0,0.0,89,0.00,,CLR,0.00,VWS V14.01,2013-05-02 10:30:00,
2013-05-02 03:35:00,34.3,31.4,29.26,SE,135,0.0,0.0,89,0.00,,CLR,0.00,VWS V14.01,2013-05-02 10:35:00,
2013-05-02 03:40:00,34.5,31.6,29.26,SSW,202,0.0,0.0,89,0.00,,CLR,0.00,VWS V14.01,2013-05-02 10:40:00,
2013-05-02 03:45:00,34.3,31.7,29.26,South,180,0.0,0.0,90,0.00,,CLR,0.00,VWS V14.01,2013-05-02 10:45:00,
2013-05-02 03:50:00,34.0,31.4,29.26,South,180,0.0,0.0,90,0.00,,CLR,0.00,VWS V14.01,2013-05-02 10:50:00,
2013-05-02 03:55:00,33.8,30.9,29.26,SE,135,0.0,0.0,89,0.00,,CLR,0.00,VWS V14.01,2013-05-02 10:55:00,
2013-05-02 04:00:00,33.6,31.0,29.26,SSE,158,0.0,0.0,90,0.00,,CLR,0.00,VWS V14.01,2013-05-02 11:00:00,
2013-05-02 04:05:00,33.4,30.5,29.26,South,180,0.0,0.0,89,0.00,,CLR,0.00,VWS V14.01,2013-05-02 11:05:00,
2013-05-02 04:10:00,33.4,30.8,29.26,SW,225,0.0,0.0,90,0.00,,CLR,0.00,VWS V14.01,2013-05-02 11:10:00,
2013-05-02 04:15:00,33.3,30.6,29.26,WSW,248,0.0,0.0,90,0.00,,CLR,0.00,VWS V14.01,2013-05-02 11:15:00,
2013-05-02 04:20:00,33.1,30.5,29.26,WSW,248,1.1,1.1,90,0.00,,CLR,0.00,VWS V14.01,2013-05-02 11:20:00,
2013-05-02 04:25:00,33.1,30.5,29.26,WSW,248,0.0,0.0,90,0.00,,CLR,0.00,VWS V14.01,2013-05-02 11:25:00,
2013-05-02 04:29:00,32.9,30.3,29.26,NE,45,0.0,0.0,90,0.00,,CLR,0.00,VWS V14.01,2013-05-02 11:29:00,
2013-05-02 04:34:00,32.9,30.6,29.26,SW,225,0.0,0.0,91,0.00,,CLR,0.00,VWS V14.01,2013-05-02 11:34:00,
2013-05-02 04:39:00,32.7,30.4,29.26,SW,225,0.0,0.0,91,0.00,,CLR,0.00,VWS V14.01,2013-05-02 11:39:00,
2013-05-02 04:44:00,32.5,30.2,29.26,SW,225,0.0,0.0,91,0.00,,CLR,0.00,VWS V14.01,2013-05-02 11:44:00,
2013-05-02 04:49:00,32.5,29.9,29.26,West,270,0.0,0.0,90,0.00,,CLR,0.00,VWS V14.01,2013-05-02 11:49:00,
2013-05-02 04:54:00,32.4,29.8,29.26,West,270,0.0,0.0,90,0.00,,CLR,0.00,VWS V14.01,2013-05-02 11:54:00,
2013-05-02 04:59:00,32.2,29.6,29.26,SSE,158,0.0,0.0,90,0.00,,CLR,0.00,VWS V14.01,2013-05-02 11:59:00,
2013-05-02 05:04:00,32.2,29.6,29.23,South,180,0.0,0.0,90,0.00,,CLR,0.00,VWS V14.01,2013-05-02 12:04:00,
2013-05-02 05:09:00,32.0,29.4,29.23,South,180,0.0,0.0,90,0.00,,CLR,0.00,VWS V14.01,2013-05-02 12:09:00,
2013-05-02 05:14:00,31.8,29.2,29.23,SSE,158,0.0,0.0,90,0.00,,CLR,0.00,VWS V14.01,2013-05-02 12:14:00,
2013-05-02 05:19:00,31.8,29.2,29.23,SSE,158,0.0,0.0,90,0.00,,CLR,0.00,VWS V14.01,2013-05-02 12:19:00,
2013-05-02 05:24:00,31.6,29.3,29.23,South,180,0.0,0.0,91,0.00,,CLR,0.00,VWS V14.01,2013-05-02 12:24:00,
2013-05-02 05:29:00,31.5,28.9,29.23,South,180,0.0,0.0,90,0.00,,CLR,0.00,VWS V14.01,2013-05-02 12:29:00,
2013-05-02 05:34:00,31.5,28.9,29.23,SSW,202,0.0,0.0,90,0.00,,CLR,0.00,VWS V14.01,2013-05-02 12:34:00,
2013-05-02 05:39:00,31.5,29.1,29.23,South,180,0.0,0.0,91,0.00,,CLR,0.00,VWS V14.01,2013-05-02 12:39:00,
2013-05-02 05:44:00,31.1,28.5,29.23,North,0,0.0,0.0,90,0.00,,CLR,0.00,VWS V14.01,2013-05-02 12:44:00,
2013-05-02 05:49:00,31.3,29.0,29.23,SW,225,0.0,0.0,91,0.00,,CLR,0.00,VWS V14.01,2013-05-02 12:49:00,
2013-05-02 05:54:00,31.3,29.0,29.23,SW,225,0.0,0.0,91,0.00,,CLR,0.00,VWS V14.01,2013-05-02 12:54:00,
2013-05-02 05:59:00,31.3,29.0,29.23,SW,225,1.1,1.1,91,0.00,,CLR,0.00,VWS V14.01,2013-05-02 12:59:00,
2013-05-02 06:04:00,31.3,29.0,29.23,ESE,112,1.3,1.3,91,0.00,,CLR,0.00,VWS V14.01,2013-05-02 13:04:00,
2013-05-02 06:09:00,31.3,29.0,29.23,WSW,248,1.1,1.1,91,0.00,,CLR,0.00,VWS V14.01,2013-05-02 13:09:00,
2013-05-02 06:14:00,31.5,29.4,29.23,WSW,248,0.0,0.0,92,0.00,,CLR,0.00,VWS V14.01,2013-05-02 13:14:00,
2013-05-02 06:19:00,31.5,29.4,29.23,SSE,158,0.0,0.0,92,0.00,,CLR,0.00,VWS V14.01,2013-05-02 13:19:00,
2013-05-02 06:24:00,31.6,29.6,29.23,SSE,158,0.0,0.0,92,0.00,,CLR,0.00,VWS V14.01,2013-05-02 13:24:00,
2013-05-02 06:29:00,31.8,30.0,29.23,SSE,158,0.0,0.0,93,0.00,,CLR,0.00,VWS V14.01,2013-05-02 13:29:00,
2013-05-02 06:34:00,31.6,29.6,29.23,SSE,158,0.0,0.0,92,0.00,,CLR,0.00,VWS V14.01,2013-05-02 13:34:00,
2013-05-02 06:39:00,32.0,29.9,29.23,SW,225,0.0,0.0,92,0.00,,CLR,0.00,VWS V14.01,2013-05-02 13:39:00,
2013-05-02 06:44:00,32.2,30.1,29.23,SW,225,0.0,0.0,92,0.00,,CLR,0.00,VWS V14.01,2013-05-02 13:44:00,
2013-05-02 06:49:00,32.4,30.6,29.23,SSE,158,0.0,0.0,93,0.00,,CLR,0.00,VWS V14.01,2013-05-02 13:49:00,
2013-05-02 06:54:00,32.4,30.3,29.23,SE,135,0.0,0.0,92,0.00,,CLR,0.00,VWS V14.01,2013-05-02 13:54:00,
2013-05-02 06:59:00,32.9,31.1,29.23,SSE,158,0.0,0.0,93,0.00,,CLR,0.00,VWS V14.01,2013-05-02 13:59:00,
2013-05-02 07:04:00,34.2,32.3,29.23,South,180,0.0,0.0,93,0.00,,,0.00,VWS V14.01,2013-05-02 14:04:00,
2013-05-02 07:09:00,35.1,33.2,29.23,ESE,112,0.0,0.0,93,0.00,,,0.00,VWS V14.01,2013-05-02 14:09:00,
2013-05-02 07:14:00,37.4,35.8,29.23,East,90,0.0,0.0,94,0.00,,,0.00,VWS V14.01,2013-05-02 14:14:00,
2013-05-02 07:19:00,39.0,37.4,29.23,East,90,0.0,0.0,94,0.00,,,0.00,VWS V14.01,2013-05-02 14:19:00,
2013-05-02 07:24:00,41.5,40.0,29.23,East,90,0.0,0.0,94,0.00,,,0.00,VWS V14.01,2013-05-02 14:24:00,
2013-05-02 07:29:00,43.7,42.1,29.23,North,0,0.0,0.0,94,0.00,,,0.00,VWS V14.01,2013-05-02 14:29:00,
2013-05-02 07:34:00,45.3,43.4,29.26,SE,135,1.3,1.3,93,0.00,,,0.00,VWS V14.01,2013-05-02 14:34:00,
2013-05-02 07:39:00,47.1,44.3,29.26,West,270,0.0,0.0,90,0.00,,,0.00,VWS V14.01,2013-05-02 14:39:00,
2013-05-02 07:44:00,47.8,44.5,29.26,ESE,112,0.0,0.0,88,0.00,,,0.00,VWS V14.01,2013-05-02 14:44:00,
2013-05-02 07:49:00,49.5,43.9,29.26,ESE,112,1.3,1.3,81,0.00,,,0.00,VWS V14.01,2013-05-02 14:49:00,
2013-05-02 07:54:00,50.4,43.8,29.26,North,0,1.3,1.3,78,0.00,,,0.00,VWS V14.01,2013-05-02 14:54:00,
2013-05-02 07:59:00,51.6,43.6,29.26,North,0,2.5,2.5,74,0.00,,,0.00,VWS V14.01,2013-05-02 14:59:00,
2013-05-02 08:04:00,52.0,41.8,29.26,NNE,22,2.5,2.5,68,0.00,,,0.00,VWS V14.01,2013-05-02 15:04:00,
2013-05-02 08:09:00,53.4,41.6,29.26,East,90,1.3,1.3,64,0.00,,,0.00,VWS V14.01,2013-05-02 15:09:00,
2013-05-02 08:14:00,54.5,40.5,29.26,NNW,338,2.9,2.9,59,0.00,,,0.00,VWS V14.01,2013-05-02 15:14:00,
2013-05-02 08:19:00,54.5,39.1,29.26,NE,45,3.1,3.1,56,0.00,,,0.00,VWS V14.01,2013-05-02 15:19:00,
2013-05-02 08:24:00,55.0,37.8,29.26,NE,45,3.4,3.4,52,0.00,,,0.00,VWS V14.01,2013-05-02 15:24:00,
2013-05-02 08:29:00,55.0,37.3,29.26,ESE,112,2.5,2.5,51,0.00,,,0.00,VWS V14.01,2013-05-02 15:29:00,
2013-05-02 08:34:00,56.3,38.4,29.26,ENE,68,1.1,1.1,51,0.00,,,0.00,VWS V14.01,2013-05-02 15:34:00,
2013-05-02 08:39:00,56.8,37.4,29.26,ESE,112,1.3,1.3,48,0.00,,,0.00,VWS V14.01,2013-05-02 15:39:00,
2013-05-02 08:44:00,56.8,36.8,29.26,North,0,4.3,4.3,47,0.00,,,0.00,VWS V14.01,2013-05-02 15:44:00,
2013-05-02 08:49:00,57.0,37.5,29.26,ENE,68,1.6,1.6,48,0.00,,,0.00,VWS V14.01,2013-05-02 15:49:00,
2013-05-02 08:54:00,58.3,38.7,29.26,NE,45,3.1,3.1,48,0.00,,,0.00,VWS V14.01,2013-05-02 15:54:00,
2013-05-02 08:59:00,58.8,38.1,29.26,SE,135,1.6,1.6,46,0.00,,,0.00,VWS V14.01,2013-05-02 15:59:00,
2013-05-02 09:04:00,59.9,39.1,29.23,ENE,68,2.7,2.7,46,0.00,,,0.00,VWS V14.01,2013-05-02 16:04:00,
2013-05-02 09:09:00,60.1,39.2,29.23,ESE,112,2.5,2.5,46,0.00,,,0.00,VWS V14.01,2013-05-02 16:09:00,
2013-05-02 09:14:00,60.4,38.4,29.23,East,90,3.1,3.1,44,0.00,,,0.00,VWS V14.01,2013-05-02 16:14:00,
2013-05-02 09:19:00,61.3,39.3,29.23,ENE,68,1.3,1.3,44,0.00,,,0.00,VWS V14.01,2013-05-02 16:19:00,
2013-05-02 09:24:00,62.1,39.9,29.23,ENE,68,2.9,2.9,44,0.00,,,0.00,VWS V14.01,2013-05-02 16:24:00,
2013-05-02 09:29:00,62.2,39.5,29.23,NE,45,3.4,3.4,43,0.00,,,0.00,VWS V14.01,2013-05-02 16:29:00,
2013-05-02 09:34:00,62.4,39.7,29.23,NW,315,2.5,2.5,43,0.00,,CLR,0.00,VWS V14.01,2013-05-02 16:34:00,
2013-05-02 09:39:00,63.1,39.1,29.23,North,0,2.5,2.5,41,0.00,,CLR,0.00,VWS V14.01,2013-05-02 16:39:00,
2013-05-02 09:44:00,64.2,40.7,29.23,SE,135,2.2,2.2,42,0.00,,CLR,0.00,VWS V14.01,2013-05-02 16:44:00,
2013-05-02 09:49:00,65.7,41.3,29.20,NE,45,2.5,2.5,41,0.00,,CLR,0.00,VWS V14.01,2013-05-02 16:49:00,
2013-05-02 09:54:00,66.9,41.8,29.20,ENE,68,0.9,0.9,40,0.00,,CLR,0.00,VWS V14.01,2013-05-02 16:54:00,
2013-05-02 09:59:00,67.8,43.3,29.20,NE,45,2.7,2.7,41,0.00,,CLR,0.00,VWS V14.01,2013-05-02 16:59:00,
2013-05-02 10:04:00,67.1,40.0,29.20,North,0,2.5,2.5,37,0.00,,CLR,0.00,VWS V14.01,2013-05-02 17:04:00,
2013-05-02 10:08:00,66.7,39.0,29.20,NNW,338,3.4,3.4,36,0.00,,CLR,0.00,VWS V14.01,2013-05-02 17:08:00,
2013-05-02 10:13:00,66.9,39.8,29.20,East,90,3.4,3.4,37,0.00,,CLR,0.00,VWS V14.01,2013-05-02 17:13:00,
2013-05-02 10:18:00,68.2,40.9,29.20,ESE,112,1.1,1.1,37,0.00,,CLR,0.00,VWS V14.01,2013-05-02 17:18:00,
2013-05-02 10:23:00,69.1,41.0,29.20,East,90,4.5,4.5,36,0.00,,CLR,0.00,VWS V14.01,2013-05-02 17:23:00,
2013-05-02 10:28:00,69.1,40.3,29.20,ENE,68,2.0,2.0,35,0.00,,CLR,0.00,VWS V14.01,2013-05-02 17:28:00,
2013-05-02 10:33:00,69.1,40.3,29.20,North,0,2.0,2.0,35,0.00,,CLR,0.00,VWS V14.01,2013-05-02 17:33:00,
2013-05-02 10:38:00,68.9,40.2,29.20,North,0,2.7,2.7,35,0.00,,CLR,0.00,VWS V14.01,2013-05-02 17:38:00,
2013-05-02 10:43:00,70.0,41.1,29.20,North,0,1.1,1.1,35,0.00,,CLR,0.00,VWS V14.01,2013-05-02 17:43:00,
2013-05-02 10:48:00,70.5,41.6,29.20,North,0,1.1,1.1,35,0.00,,CLR,0.00,VWS V14.01,2013-05-02 17:48:00,
2013-05-02 10:53:00,70.7,41.0,29.20,WNW,292,2.7,2.7,34,0.00,,CLR,0.00,VWS V14.01,2013-05-02 17:53:00,
2013-05-02 10:58:00,72.5,42.6,29.20,NNW,338,1.3,1.3,34,0.00,,CLR,0.00,VWS V14.01,2013-05-02 17:58:00,
2013-05-02 11:03:00,71.4,41.6,29.17,North,0,2.0,2.0,34,0.00,,CLR,0.00,VWS V14.01,2013-05-02 18:03:00,
2013-05-02 11:08:00,72.9,41.3,29.17,NW,315,2.7,2.7,32,0.00,,CLR,0.00,VWS V14.01,2013-05-02 18:08:00,
2013-05-02 11:13:00,73.0,41.5,29.17,NE,45,1.6,1.6,32,0.00,,CLR,0.00,VWS V14.01,2013-05-02 18:13:00,
2013-05-02 11:18:00,74.1,42.4,29.17,East,90,2.0,2.0,32,0.00,,CLR,0.00,VWS V14.01,2013-05-02 18:18:00,
2013-05-02 11:23:00,74.5,42.7,29.17,NNW,338,3.1,3.1,32,0.00,,CLR,0.00,VWS V14.01,2013-05-02 18:23:00,
2013-05-02 11:28:00,73.9,41.4,29.17,ENE,68,3.1,3.1,31,0.00,,CLR,0.00,VWS V14.01,2013-05-02 18:28:00,
2013-05-02 11:33:00,75.0,42.4,29.17,ENE,68,1.6,1.6,31,0.00,,CLR,0.00,VWS V14.01,2013-05-02 18:33:00,
2013-05-02 11:38:00,75.7,38.5,29.17,WNW,292,2.5,2.5,26,0.00,,CLR,0.00,VWS V14.01,2013-05-02 18:38:00,
2013-05-02 11:43:00,75.7,36.4,29.17,WNW,292,2.0,2.0,24,0.00,,CLR,0.00,VWS V14.01,2013-05-02 18:43:00,
2013-05-02 11:48:00,76.6,38.2,29.17,ESE,112,1.3,1.3,25,0.00,,CLR,0.00,VWS V14.01,2013-05-02 18:48:00,
2013-05-02 11:53:00,77.0,35.3,29.17,East,90,4.7,4.7,22,0.00,,CLR,0.00,VWS V14.01,2013-05-02 18:53:00,
2013-05-02 11:58:00,77.9,33.6,29.17,ESE,112,1.6,1.6,20,0.00,,CLR,0.00,VWS V14.01,2013-05-02 18:58:00,
2013-05-02 12:03:00,77.7,11.8,29.17,NE,45,2.9,2.9,8,0.00,,CLR,0.00,VWS V14.01,2013-05-02 19:03:00,
2013-05-02 12:08:00,77.0,30.3,29.17,NNE,22,2.0,2.0,18,0.00,,CLR,0.00,VWS V14.01,2013-05-02 19:08:00,
2013-05-02 12:13:00,78.6,17.5,29.17,WNW,292,2.9,2.9,10,0.00,,CLR,0.00,VWS V14.01,2013-05-02 19:13:00,
2013-05-02 12:18:00,78.4,31.5,29.17,NE,45,2.0,2.0,18,0.00,,CLR,0.00,VWS V14.01,2013-05-02 19:18:00,
2013-05-02 12:23:00,78.1,31.2,29.17,North,0,1.1,1.1,18,0.00,,CLR,0.00,VWS V14.01,2013-05-02 19:23:00,
2013-05-02 12:28:00,77.9,31.0,29.17,ENE,68,2.7,2.7,18,0.00,,CLR,0.00,VWS V14.01,2013-05-02 19:28:00,
2013-05-02 12:33:00,78.6,17.5,29.14,WNW,292,1.3,1.3,10,0.00,,CLR,0.00,VWS V14.01,2013-05-02 19:33:00,
2013-05-02 12:38:00,79.3,2.6,29.14,ENE,68,2.7,2.7,5,0.00,,CLR,0.00,VWS V14.01,2013-05-02 19:38:00,
2013-05-02 12:43:00,79.3,18.1,29.14,SSE,158,1.3,1.3,10,0.00,,CLR,0.00,VWS V14.01,2013-05-02 19:43:00,
2013-05-02 12:48:00,79.9,3.0,29.14,SE,135,1.1,1.1,5,0.00,,CLR,0.00,VWS V14.01,2013-05-02 19:48:00,
2013-05-02 12:53:00,79.5,2.7,29.14,South,180,2.9,2.9,5,0.00,,CLR,0.00,VWS V14.01,2013-05-02 19:53:00,
2013-05-02 12:58:00,79.2,9.8,29.14,NE,45,3.1,3.1,7,0.00,,CLR,0.00,VWS V14.01,2013-05-02 19:58:00,
2013-05-02 13:03:00,78.8,-16.6,29.14,SSW,202,2.7,2.7,2,0.00,,CLR,0.00,VWS V14.01,2013-05-02 20:03:00,
2013-05-02 13:08:00,79.9,22.8,29.14,NW,315,1.6,1.6,12,0.00,,CLR,0.00,VWS V14.01,2013-05-02 20:08:00,
2013-05-02 13:13:00,80.6,16.6,29.14,ENE,68,3.8,3.8,9,0.00,,CLR,0.00,VWS V14.01,2013-05-02 20:13:00,
2013-05-02 13:18:00,80.2,23.1,29.12,North,0,3.8,3.8,12,0.00,,CLR,0.00,VWS V14.01,2013-05-02 20:18:00,
2013-05-02 13:23:00,79.7,18.4,29.12,SSW,202,4.0,4.0,10,0.00,,CLR,0.00,VWS V14.01,2013-05-02 20:23:00,
2013-05-02 13:28:00,80.8,11.0,29.12,NNW,338,2.7,2.7,7,0.00,,CLR,0.00,VWS V14.01,2013-05-02 20:28:00,
2013-05-02 13:33:00,79.9,22.8,29.12,North,0,1.6,1.6,12,0.00,,CLR,0.00,VWS V14.01,2013-05-02 20:33:00,
2013-05-02 13:38:00,80.6,16.6,29.12,NNE,22,3.1,3.1,9,0.00,,CLR,0.00,VWS V14.01,2013-05-02 20:38:00,
2013-05-02 13:43:00,79.2,27.6,29.12,NNW,338,2.0,2.0,15,0.00,,CLR,0.00,VWS V14.01,2013-05-02 20:43:00,
2013-05-02 13:48:00,79.9,28.1,29.12,NNE,22,2.7,2.7,15,0.00,,CLR,0.00,VWS V14.01,2013-05-02 20:48:00,
2013-05-02 13:53:00,79.9,22.8,29.12,WSW,248,2.2,2.2,12,0.00,,CLR,0.00,VWS V14.01,2013-05-02 20:53:00,
2013-05-02 13:58:00,80.4,10.8,29.12,SSW,202,3.8,3.8,7,0.00,,CLR,0.00,VWS V14.01,2013-05-02 20:58:00,
2013-05-02 14:03:00,80.6,10.9,29.12,WSW,248,4.3,4.3,7,0.00,,CLR,0.00,VWS V14.01,2013-05-02 21:03:00,
2013-05-02 14:08:00,80.1,-15.8,29.12,North,0,2.9,2.9,2,0.00,,CLR,0.00,VWS V14.01,2013-05-02 21:08:00,
2013-05-02 14:13:00,80.1,-15.8,29.12,SSW,202,7.4,7.4,2,0.00,,CLR,0.00,VWS V14.01,2013-05-02 21:13:00,
2013-05-02 14:18:00,79.7,10.2,29.12,SSW,202,3.4,3.4,7,0.00,,CLR,0.00,VWS V14.01,2013-05-02 21:18:00,
2013-05-02 14:23:00,79.3,27.7,29.12,WSW,248,3.4,3.4,15,0.00,,CLR,0.00,VWS V14.01,2013-05-02 21:23:00,
2013-05-02 14:28:00,80.1,10.5,29.12,West,270,6.5,6.5,7,0.00,,CLR,0.00,VWS V14.01,2013-05-02 21:28:00,
2013-05-02 14:33:00,80.8,23.5,29.12,West,270,6.9,6.9,12,0.00,,CLR,0.00,VWS V14.01,2013-05-02 21:33:00,
2013-05-02 14:38:00,81.0,16.9,29.12,NE,45,2.2,2.2,9,0.00,,CLR,0.00,VWS V14.01,2013-05-02 21:38:00,
2013-05-02 14:43:00,79.2,34.7,29.12,NNW,338,2.9,2.9,20,0.00,,CLR,0.00,VWS V14.01,2013-05-02 21:43:00,
2013-05-02 14:48:00,79.3,34.8,29.12,NNW,338,2.5,2.5,20,0.00,,CLR,0.00,VWS V14.01,2013-05-02 21:48:00,
2013-05-02 14:53:00,78.6,34.2,29.12,NNW,338,5.4,5.4,20,0.00,,CLR,0.00,VWS V14.01,2013-05-02 21:53:00,
2013-05-02 14:58:00,78.6,27.1,29.12,NE,45,4.9,4.9,15,0.00,,CLR,0.00,VWS V14.01,2013-05-02 21:58:00,
2013-05-02 15:03:00,77.9,34.9,29.09,North,0,5.4,5.4,21,0.00,,CLR,0.00,VWS V14.01,2013-05-02 22:03:00,
2013-05-02 15:08:00,77.4,34.4,29.09,ENE,68,2.7,2.7,21,0.00,,CLR,0.00,VWS V14.01,2013-05-02 22:08:00,
2013-05-02 15:13:00,79.2,37.1,29.09,East,90,1.3,1.3,22,0.00,,CLR,0.00,VWS V14.01,2013-05-02 22:13:00,
2013-05-02 15:18:00,79.3,37.2,29.09,NNE,22,2.7,2.7,22,0.00,,CLR,0.00,VWS V14.01,2013-05-02 22:18:00,
2013-05-02 15:23:00,79.2,37.1,29.09,ESE,112,2.2,2.2,22,0.00,,CLR,0.00,VWS V14.01,2013-05-02 22:23:00,
2013-05-02 15:28:00,78.3,35.2,29.09,West,270,3.1,3.1,21,0.00,,CLR,0.00,VWS V14.01,2013-05-02 22:28:00,
2013-05-02 15:33:00,78.3,35.2,29.09,SW,225,4.0,4.0,21,0.00,,CLR,0.00,VWS V14.01,2013-05-02 22:33:00,
2013-05-02 15:38:00,79.5,38.5,29.09,South,180,2.0,2.0,23,0.00,,CLR,0.00,VWS V14.01,2013-05-02 22:38:00,
2013-05-02 15:43:00,79.3,37.2,29.09,North,0,3.8,3.8,22,0.00,,CLR,0.00,VWS V14.01,2013-05-02 22:43:00,
2013-05-02 15:47:00,79.0,36.9,29.09,WNW,292,2.9,2.9,22,0.00,,CLR,0.00,VWS V14.01,2013-05-02 22:47:00,
2013-05-02 15:52:00,80.6,39.4,29.09,ENE,68,2.9,2.9,23,0.00,,CLR,0.00,VWS V14.01,2013-05-02 22:52:00,
2013-05-02 15:57:00,81.7,40.3,29.09,North,0,1.3,1.3,23,0.00,,CLR,0.00,VWS V14.01,2013-05-02 22:57:00,
2013-05-02 16:02:00,81.3,38.9,29.09,ENE,68,1.3,1.3,22,0.00,,CLR,0.00,VWS V14.01,2013-05-02 23:02:00,
2013-05-02 16:07:00,79.9,38.8,29.09,NE,45,3.6,3.6,23,0.00,,CLR,0.00,VWS V14.01,2013-05-02 23:07:00,
2013-05-02 16:12:00,78.4,36.5,29.09,NNW,338,3.6,3.6,22,0.00,,CLR,0.00,VWS V14.01,2013-05-02 23:12:00,
2013-05-02 16:17:00,78.4,36.5,29.09,West,270,5.8,5.8,22,0.00,,CLR,0.00,VWS V14.01,2013-05-02 23:17:00,
2013-05-02 16:22:00,76.8,38.4,29.09,NW,315,5.4,5.4,25,0.00,,CLR,0.00,VWS V14.01,2013-05-02 23:22:00,
2013-05-02 16:27:00,75.2,34.9,29.09,SW,225,4.7,4.7,23,0.00,,CLR,0.00,VWS V14.01,2013-05-02 23:27:00,
2013-05-02 16:32:00,74.7,35.5,29.09,ENE,68,9.6,9.6,24,0.00,,CLR,0.00,VWS V14.01,2013-05-02 23:32:00,
2013-05-02 16:37:00,73.2,36.3,29.09,East,90,5.8,5.8,26,0.00,,CLR,0.00,VWS V14.01,2013-05-02 23:37:00,
2013-05-02 16:42:00,72.5,39.3,29.09,ENE,68,4.0,4.0,30,0.00,,CLR,0.00,VWS V14.01,2013-05-02 23:42:00,
2013-05-02 16:47:00,72.0,38.9,29.09,ENE,68,3.6,3.6,30,0.00,,CLR,0.00,VWS V14.01,2013-05-02 23:47:00,
2013-05-02 16:52:00,71.6,40.2,29.09,East,90,3.1,3.1,32,0.00,,CLR,0.00,VWS V14.01,2013-05-02 23:52:00,
2013-05-02 16:57:00,71.2,39.9,29.09,NE,45,3.6,3.6,32,0.00,,CLR,0.00,VWS V14.01,2013-05-02 23:57:00,
2013-05-02 17:02:00,70.5,39.3,29.09,East,90,5.8,5.8,32,0.00,,CLR,0.00,VWS V14.01,2013-05-03 00:02:00,
2013-05-02 17:07:00,70.0,38.8,29.09,ENE,68,2.7,2.7,32,0.00,,CLR,0.00,VWS V14.01,2013-05-03 00:07:00,
2013-05-02 17:12:00,69.8,38.6,29.09,SE,135,6.5,6.5,32,0.00,,CLR,0.00,VWS V14.01,2013-05-03 00:12:00,
2013-05-02 17:17:00,69.3,38.2,29.09,NNE,22,5.8,5.8,32,0.00,,CLR,0.00,VWS V14.01,2013-05-03 00:17:00,
2013-05-02 17:22:00,69.3,39.0,29.09,SSE,158,4.3,4.3,33,0.00,,CLR,0.00,VWS V14.01,2013-05-03 00:22:00,
2013-05-02 17:27:00,68.9,37.8,29.09,East,90,8.5,8.5,32,0.00,,CLR,0.00,VWS V14.01,2013-05-03 00:27:00,
2013-05-02 17:32:00,68.5,38.3,29.09,East,90,5.4,5.4,33,0.00,,CLR,0.00,VWS V14.01,2013-05-03 00:32:00,
2013-05-02 17:37:00,68.5,38.3,29.09,SSE,158,2.5,2.5,33,0.00,,CLR,0.00,VWS V14.01,2013-05-03 00:37:00,
2013-05-02 17:42:00,68.2,38.0,29.09,ENE,68,4.0,4.0,33,0.00,,CLR,0.00,VWS V14.01,2013-05-03 00:42:00,
2013-05-02 17:47:00,68.0,37.8,29.09,SE,135,7.8,7.8,33,0.00,,CLR,0.00,VWS V14.01,2013-05-03 00:47:00,
2013-05-02 17:52:00,68.0,37.8,29.09,ENE,68,4.0,4.0,33,0.00,,CLR,0.00,VWS V14.01,2013-05-03 00:52:00,
2013-05-02 17:57:00,67.8,37.7,29.09,NE,45,8.5,8.5,33,0.00,,CLR,0.00,VWS V14.01,2013-05-03 00:57:00,
2013-05-02 18:02:00,67.6,38.3,29.09,NE,45,2.9,2.9,34,0.00,,CLR,0.00,VWS V14.01,2013-05-03 01:02:00,
2013-05-02 18:07:00,67.5,38.1,29.09,ENE,68,3.6,3.6,34,0.00,,CLR,0.00,VWS V14.01,2013-05-03 01:07:00,
2013-05-02 18:12:00,67.3,38.0,29.09,SW,225,2.9,2.9,34,0.00,,CLR,0.00,VWS V14.01,2013-05-03 01:12:00,
2013-05-02 18:17:00,66.9,37.7,29.09,East,90,3.8,3.8,34,0.00,,CLR,0.00,VWS V14.01,2013-05-03 01:17:00,
2013-05-02 18:22:00,66.9,37.7,29.09,WNW,292,3.4,3.4,34,0.00,,CLR,0.00,VWS V14.01,2013-05-03 01:22:00,
2013-05-02 18:27:00,66.6,37.3,29.09,East,90,10.3,10.3,34,0.00,,CLR,0.00,VWS V14.01,2013-05-03 01:27:00,
2013-05-02 18:32:00,66.2,37.0,29.09,NE,45,3.8,3.8,34,0.00,,CLR,0.00,VWS V14.01,2013-05-03 01:32:00,
2013-05-02 18:37:00,66.2,37.0,29.09,ESE,112,4.9,4.9,34,0.00,,CLR,0.00,VWS V14.01,2013-05-03 01:37:00,
2013-05-02 18:42:00,65.8,36.7,29.09,ENE,68,3.8,3.8,34,0.00,,CLR,0.00,VWS V14.01,2013-05-03 01:42:00,
2013-05-02 18:47:00,65.5,36.4,29.09,East,90,3.1,3.1,34,0.00,,CLR,0.00,VWS V14.01,2013-05-03 01:47:00,
2013-05-02 18:52:00,65.3,36.2,29.09,SSE,158,6.0,6.0,34,0.00,,CLR,0.00,VWS V14.01,2013-05-03 01:52:00,
2013-05-02 18:57:00,64.9,35.9,29.09,NNW,338,3.1,3.1,34,0.00,,CLR,0.00,VWS V14.01,2013-05-03 01:57:00,
2013-05-02 19:02:00,64.6,35.6,29.06,East,90,6.5,6.5,34,0.00,,CLR,0.00,VWS V14.01,2013-05-03 02:02:00,
2013-05-02 19:07:00,64.6,35.6,29.06,WSW,248,3.4,3.4,34,0.00,,CLR,0.00,VWS V14.01,2013-05-03 02:07:00,
2013-05-02 19:12:00,64.6,35.6,29.06,SSW,202,5.8,5.8,34,0.00,,CLR,0.00,VWS V14.01,2013-05-03 02:12:00,
2013-05-02 19:17:00,64.4,35.5,29.09,NNE,22,5.4,5.4,34,0.00,,CLR,0.00,VWS V14.01,2013-05-03 02:17:00,
2013-05-02 19:22:00,64.2,35.3,29.09,NNE,22,7.6,7.6,34,0.00,,CLR,0.00,VWS V14.01,2013-05-03 02:22:00,
2013-05-02 19:27:00,64.0,35.1,29.09,ENE,68,10.3,10.3,34,0.00,,CLR,0.00,VWS V14.01,2013-05-03 02:27:00,
2013-05-02 19:32:00,64.0,35.1,29.06,ENE,68,3.1,3.1,34,0.00,,CLR,0.00,VWS V14.01,2013-05-03 02:32:00,
2013-05-02 19:37:00,63.7,35.5,29.06,NNE,22,5.8,5.8,35,0.00,,CLR,0.00,VWS V14.01,2013-05-03 02:37:00,
2013-05-02 19:42:00,63.5,34.7,29.06,SSW,202,1.6,1.6,34,0.00,,CLR,0.00,VWS V14.01,2013-05-03 02:42:00,
2013-05-02 19:47:00,63.5,34.7,29.06,WNW,292,6.5,6.5,34,0.00,,CLR,0.00,VWS V14.01,2013-05-03 02:47:00,
2013-05-02 19:52:00,63.0,34.9,29.06,WSW,248,4.0,4.0,35,0.00,,CLR,0.00,VWS V14.01,2013-05-03 02:52:00,
2013-05-02 19:57:00,62.8,34.8,29.06,WSW,248,4.7,4.7,35,0.00,,CLR,0.00,VWS V14.01,2013-05-03 02:57:00,
2013-05-02 20:02:00,62.6,34.6,29.06,SSW,202,2.5,2.5,35,0.00,,CLR,0.00,VWS V14.01,2013-05-03 03:02:00,
2013-05-02 20:07:00,62.4,35.1,29.06,WNW,292,3.6,3.6,36,0.00,,CLR,0.00,VWS V14.01,2013-05-03 03:07:00,
2013-05-02 20:12:00,62.2,35.0,29.06,SW,225,2.2,2.2,36,0.00,,CLR,0.00,VWS V14.01,2013-05-03 03:12:00,
2013-05-02 20:17:00,61.9,34.7,29.09,SSW,202,2.7,2.7,36,0.00,,CLR,0.00,VWS V14.01,2013-05-03 03:17:00,
2013-05-02 20:22:00,61.2,34.7,29.09,SW,225,1.6,1.6,37,0.00,,CLR,0.00,VWS V14.01,2013-05-03 03:22:00,
2013-05-02 20:27:00,60.8,35.1,29.09,NNW,338,2.0,2.0,38,0.00,,CLR,0.00,VWS V14.01,2013-05-03 03:27:00,
2013-05-02 20:32:00,60.6,34.9,29.09,WNW,292,3.8,3.8,38,0.00,,CLR,0.00,VWS V14.01,2013-05-03 03:32:00,
2013-05-02 20:37:00,59.7,36.6,29.09,SSE,158,1.6,1.6,42,0.00,,CLR,0.00,VWS V14.01,2013-05-03 03:37:00,
2013-05-02 20:42:00,59.0,37.7,29.09,WNW,292,2.2,2.2,45,0.00,,CLR,0.00,VWS V14.01,2013-05-03 03:42:00,
2013-05-02 20:47:00,58.5,37.2,29.09,East,90,1.1,1.1,45,0.00,,CLR,0.00,VWS V14.01,2013-05-03 03:47:00,
2013-05-02 20:52:00,58.1,38.5,29.09,South,180,1.6,1.6,48,0.00,,CLR,0.00,VWS V14.01,2013-05-03 03:52:00,
2013-05-02 20:57:00,57.9,38.4,29.09,NNW,338,1.6,1.6,48,0.00,,CLR,0.00,VWS V14.01,2013-05-03 03:57:00,
2013-05-02 21:01:00,57.4,38.9,29.09,NE,45,0.0,0.0,50,0.00,,CLR,0.00,VWS V14.01,2013-05-03 04:01:00,
2013-05-02 21:06:00,57.0,39.6,29.09,SSW,202,2.5,2.5,52,0.00,,CLR,0.00,VWS V14.01,2013-05-03 04:06:00,
2013-05-02 21:11:00,57.0,39.1,29.09,SSW,202,2.2,2.2,51,0.00,,CLR,0.00,VWS V14.01,2013-05-03 04:11:00,
2013-05-02 21:16:00,56.7,39.2,29.09,ENE,68,0.9,0.9,52,0.00,,CLR,0.00,VWS V14.01,2013-05-03 04:16:00,
2013-05-02 21:21:00,56.7,39.2,29.09,SSW,202,2.5,2.5,52,0.00,,CLR,0.00,VWS V14.01,2013-05-03 04:21:00,
2013-05-02 21:26:00,56.1,38.8,29.09,West,270,0.0,0.0,52,0.00,,CLR,0.00,VWS V14.01,2013-05-03 04:26:00,
2013-05-02 21:31:00,56.3,39.4,29.09,ESE,112,0.0,0.0,53,0.00,,CLR,0.00,VWS V14.01,2013-05-03 04:31:00,
2013-05-02 21:36:00,55.9,39.1,29.09,SW,225,0.0,0.0,53,0.00,,CLR,0.00,VWS V14.01,2013-05-03 04:36:00,
2013-05-02 21:41:00,55.6,38.7,29.09,SSE,158,0.0,0.0,53,0.00,,CLR,0.00,VWS V14.01,2013-05-03 04:41:00,
2013-05-02 21:46:00,55.0,39.2,29.09,SW,225,0.0,0.0,55,0.00,,CLR,0.00,VWS V14.01,2013-05-03 04:46:00,
2013-05-02 21:51:00,54.7,39.3,29.09,East,90,0.0,0.0,56,0.00,,CLR,0.00,VWS V14.01,2013-05-03 04:51:00,
2013-05-02 21:56:00,54.5,39.1,29.09,ENE,68,1.3,1.3,56,0.00,,CLR,0.00,VWS V14.01,2013-05-03 04:56:00,
2013-05-02 22:01:00,54.0,39.5,29.09,ENE,68,0.0,0.0,58,0.00,,CLR,0.00,VWS V14.01,2013-05-03 05:01:00,
2013-05-02 22:06:00,53.6,39.2,29.09,SSW,202,0.0,0.0,58,0.00,,CLR,0.00,VWS V14.01,2013-05-03 05:06:00,
2013-05-02 22:11:00,53.1,39.6,29.09,South,180,0.0,0.0,60,0.00,,CLR,0.00,VWS V14.01,2013-05-03 05:11:00,
2013-05-02 22:16:00,52.5,39.5,29.09,West,270,0.0,0.0,61,0.00,,CLR,0.00,VWS V14.01,2013-05-03 05:16:00,
2013-05-02 22:21:00,52.2,39.5,29.09,South,180,1.6,1.6,62,0.00,,CLR,0.00,VWS V14.01,2013-05-03 05:21:00,
2013-05-02 22:26:00,51.8,39.6,29.09,NNE,22,1.3,1.3,63,0.00,,CLR,0.00,VWS V14.01,2013-05-03 05:26:00,
2013-05-02 22:31:00,51.6,41.8,29.09,ESE,112,3.6,3.6,69,0.00,,CLR,0.00,VWS V14.01,2013-05-03 05:31:00,
2013-05-02 22:36:00,51.8,41.6,29.09,North,0,2.7,2.7,68,0.00,,CLR,0.00,VWS V14.01,2013-05-03 05:36:00,
2013-05-02 22:41:00,53.8,39.8,29.09,WNW,292,2.5,2.5,59,0.00,,CLR,0.00,VWS V14.01,2013-05-03 05:41:00,
2013-05-02 22:46:00,54.5,39.6,29.09,NE,45,9.2,9.2,57,0.00,,CLR,0.00,VWS V14.01,2013-05-03 05:46:00,
2013-05-02 22:50:00,55.2,39.3,29.12,NNE,22,4.9,4.9,55,0.00,,CLR,0.00,VWS V14.01,2013-05-03 05:50:00,
2013-05-02 22:55:00,55.6,37.8,29.12,North,0,5.6,5.6,51,0.00,,CLR,0.00,VWS V14.01,2013-05-03 05:55:00,
2013-05-02 23:00:00,55.9,37.6,29.12,North,0,6.5,6.5,50,0.00,,CLR,0.00,VWS V14.01,2013-05-03 06:00:00,
2013-05-02 23:05:00,55.9,37.6,29.12,NNW,338,2.2,2.2,50,0.00,,CLR,0.00,VWS V14.01,2013-05-03 06:05:00,
2013-05-02 23:10:00,55.8,37.4,29.12,South,180,2.7,2.7,50,0.00,,CLR,0.00,VWS V14.01,2013-05-03 06:10:00,
2013-05-02 23:15:00,55.6,37.8,29.12,WSW,248,1.6,1.6,51,0.00,,CLR,0.00,VWS V14.01,2013-05-03 06:15:00,
2013-05-02 23:20:00,54.7,37.4,29.12,WSW,248,2.0,2.0,52,0.00,,CLR,0.00,VWS V14.01,2013-05-03 06:20:00,
2013-05-02 23:25:00,53.6,37.4,29.12,WNW,292,3.6,3.6,54,0.00,,CLR,0.00,VWS V14.01,2013-05-03 06:25:00,
2013-05-02 23:30:00,52.9,37.2,29.12,SSW,202,2.2,2.2,55,0.00,,CLR,0.00,VWS V14.01,2013-05-03 06:30:00,
2013-05-02 23:35:00,52.3,37.1,29.12,SE,135,1.1,1.1,56,0.00,,CLR,0.00,VWS V14.01,2013-05-03 06:35:00,
2013-05-02 23:40:00,51.4,38.0,29.12,South,180,1.6,1.6,60,0.00,,CLR,0.00,VWS V14.01,2013-05-03 06:40:00,
2013-05-02 23:45:00,50.7,37.4,29.12,NNW,338,1.6,1.6,60,0.00,,CLR,0.00,VWS V14.01,2013-05-03 06:45:00,
2013-05-02 23:50:00,50.0,37.9,29.12,SSW,202,1.3,1.3,63,0.00,,CLR,0.00,VWS V14.01,2013-05-03 06:50:00,
2013-05-02 23:55:00,49.1,37.9,29.12,North,0,0.9,0.9,65,0.00,,CLR,0.00,VWS V14.01,2013-05-03 06:55:00,